Time;durP1;ratioP1;P1;durP2;ratioP2;P2;SDS_P1;SDS_P2;PMS_P1;PMS_P2;Temp;Humidity;BMP_temperature;BMP_pressure;BME280_temperature;BME280_humidity;BME280_pressure;Samples;Min_cycle;Max_cycle;Signal;HPM_P1;HPM_P2
2021/03/23 00:00:19;;;;;;;14.25;7.50;;;;;;;3.55;67.79;96000.22;4978380;28;20520;-68
2021/03/23 00:02:53;;;;;;;14.85;7.60;;;;;;;3.37;68.64;95999.41;4971638;28;20038;-67
2021/03/23 00:05:19;;;;;;;10.77;7.25;;;;;;;3.39;67.71;95957.91;4960686;28;20030;-68
2021/03/23 00:07:44;;;;;;;12.43;6.93;;;;;;;3.31;68.68;95992.47;4990738;28;20041;-68
2021/03/23 00:10:11;;;;;;;10.45;7.40;;;;;;;3.58;67.72;95992.66;4975514;28;20484;-66
2021/03/23 00:12:37;;;;;;;15.23;7.72;;;;;;;3.57;67.61;95975.25;4990823;28;20090;-66
2021/03/23 00:15:06;;;;;;;13.85;7.75;;;;;;;3.28;67.30;95931.69;4991207;28;20468;-67
2021/03/23 00:17:32;;;;;;;13.32;7.93;;;;;;;3.41;67.62;95983.16;4990755;28;20031;-68
2021/03/23 00:19:57;;;;;;;14.60;7.20;;;;;;;3.16;69.67;96004.53;4990777;28;20039;-67
2021/03/23 00:22:23;;;;;;;12.55;7.75;;;;;;;2.81;70.27;95987.88;4974961;28;20041;-68
2021/03/23 00:24:48;;;;;;;14.00;7.00;;;;;;;2.81;70.42;95981.81;4990865;28;20027;-66
2021/03/23 00:27:13;;;;;;;15.55;7.57;;;;;;;2.81;69.77;95979.19;4973045;28;20046;-67
2021/03/23 00:29:39;;;;;;;10.65;7.30;;;;;;;3.28;68.95;96002.66;4990620;28;20050;-67
2021/03/23 00:32:06;;;;;;;9.30;7.57;;;;;;;3.09;68.88;95984.47;4990395;28;20038;-68
2021/03/23 00:34:31;;;;;;;12.10;7.40;;;;;;;3.11;69.34;96006.03;4975078;28;20101;-67
2021/03/23 00:37:00;;;;;;;17.30;8.32;;;;;;;3.32;68.64;95994.03;4990299;28;20035;-66
2021/03/23 00:39:26;;;;;;;13.80;6.93;;;;;;;3.17;68.96;96000.88;4989620;28;20062;-68
2021/03/23 00:41:51;;;;;;;11.95;7.72;;;;;;;2.57;70.56;95975.84;4990145;28;20038;-68
2021/03/23 00:44:17;;;;;;;12.50;7.53;;;;;;;2.77;69.82;95985.97;4973158;28;20038;-67
2021/03/23 00:46:42;;;;;;;11.95;7.45;;;;;;;2.78;69.87;95972.59;4989890;28;20034;-69
2021/03/23 00:49:08;;;;;;;14.00;8.25;;;;;;;2.97;69.73;95990.78;4992037;28;20022;-67
2021/03/23 00:51:33;;;;;;;15.75;9.07;;;;;;;3.03;69.33;95967.00;4974119;28;20093;-68
2021/03/23 00:53:58;;;;;;;15.98;8.30;;;;;;;3.22;69.74;96006.22;4953566;28;20629;-67
2021/03/23 00:56:24;;;;;;;16.63;8.05;;;;;;;2.93;69.68;95972.06;4970883;28;20097;-69
2021/03/23 00:58:49;;;;;;;14.85;8.55;;;;;;;3.20;69.75;95989.91;4971358;28;20548;-68
2021/03/23 01:01:15;;;;;;;14.95;8.82;;;;;;;3.15;69.20;95976.66;4974499;28;20033;-68
2021/03/23 01:03:40;;;;;;;13.77;7.70;;;;;;;3.36;68.84;95999.63;4990102;28;20074;-68
2021/03/23 01:06:05;;;;;;;17.88;7.80;;;;;;;3.30;68.88;95976.94;4989894;28;20396;-69
2021/03/23 01:08:31;;;;;;;14.65;8.70;;;;;;;3.15;68.21;95958.25;4989721;28;20062;-68
2021/03/23 01:10:56;;;;;;;14.43;8.35;;;;;;;3.30;68.01;95943.53;4969411;28;20039;-68
2021/03/23 01:13:22;;;;;;;12.95;9.13;;;;;;;3.57;67.90;95972.63;4972411;28;20159;-67
2021/03/23 01:15:47;;;;;;;16.27;8.60;;;;;;;3.69;67.58;95987.56;4986177;28;20045;-68
2021/03/23 01:18:12;;;;;;;13.77;8.25;;;;;;;3.64;67.15;95944.34;4989593;28;20030;-68
2021/03/23 01:20:38;;;;;;;20.50;9.55;;;;;;;3.88;66.77;95981.00;4972197;28;20069;-69
2021/03/23 01:23:03;;;;;;;15.00;8.65;;;;;;;3.67;66.97;95985.16;4989654;28;20034;-68
2021/03/23 01:25:29;;;;;;;15.23;8.80;;;;;;;3.92;66.79;95984.75;4974298;28;20140;-67
2021/03/23 01:27:54;;;;;;;14.55;8.65;;;;;;;3.83;66.84;95971.19;4989664;28;20042;-66
2021/03/23 01:30:25;;;;;;;13.90;8.90;;;;;;;3.91;66.45;95972.63;4972247;28;20038;-67
2021/03/23 01:32:52;;;;;;;22.10;10.02;;;;;;;3.77;66.76;95989.78;4989736;28;20047;-68
2021/03/23 01:35:19;;;;;;;16.15;9.07;;;;;;;3.57;68.05;96000.78;4989673;28;20090;-68
2021/03/23 01:37:45;;;;;;;16.73;10.70;;;;;;;3.33;68.09;95944.91;4989553;28;20030;-67
2021/03/23 01:40:12;;;;;;;18.05;10.13;;;;;;;3.48;68.10;95995.13;4991436;28;20062;-67
2021/03/23 01:42:45;;;;;;;18.30;10.13;;;;;;;3.59;67.58;95989.00;4989377;28;20445;-66
2021/03/23 01:45:22;;;;;;;19.23;9.82;;;;;;;3.41;68.31;95977.91;4988335;28;20034;-67
2021/03/23 01:47:49;;;;;;;14.93;9.80;;;;;;;3.29;69.13;95978.75;4989248;28;20077;-67
2021/03/23 01:50:16;;;;;;;17.55;10.50;;;;;;;3.20;68.95;95968.88;4971749;28;20480;-68
2021/03/23 01:52:46;;;;;;;19.25;11.05;;;;;;;3.48;68.28;95984.59;4971807;28;20049;-68
2021/03/23 01:55:11;;;;;;;16.70;10.10;;;;;;;3.46;67.79;95951.69;4974036;28;20129;-68
2021/03/23 01:57:38;;;;;;;15.40;10.85;;;;;;;3.56;67.38;95951.84;4989284;28;20065;-69
2021/03/23 02:00:08;;;;;;;23.55;11.20;;;;;;;3.64;67.36;95970.66;4989275;28;20558;-68
2021/03/23 02:02:34;;;;;;;17.13;10.68;;;;;;;3.18;68.59;95950.72;4988970;28;20492;-68
2021/03/23 02:04:59;;;;;;;17.40;10.65;;;;;;;3.17;68.43;95956.97;4989330;28;20038;-67
2021/03/23 02:07:25;;;;;;;20.17;11.50;;;;;;;2.85;69.38;95946.97;4991060;28;20034;-68
2021/03/23 02:09:54;;;;;;;17.42;11.23;;;;;;;2.94;69.25;95931.63;4989120;28;20038;-67
2021/03/23 02:12:25;;;;;;;18.40;10.30;;;;;;;2.85;70.54;95967.97;4957379;28;20457;-68
2021/03/23 02:14:51;;;;;;;18.98;11.88;;;;;;;2.99;69.49;95954.56;4969738;28;20054;-68
2021/03/23 02:17:25;;;;;;;19.73;11.10;;;;;;;3.17;69.41;95961.44;4975594;28;20039;-68
2021/03/23 02:19:55;;;;;;;28.35;11.73;;;;;;;3.16;69.58;95970.38;4971705;28;20583;-68
2021/03/23 02:22:21;;;;;;;26.42;13.23;;;;;;;3.10;69.79;95962.38;4990949;28;20038;-68
2021/03/23 02:24:47;;;;;;;22.65;12.93;;;;;;;2.67;70.02;95917.47;4989010;28;20051;-68
2021/03/23 02:27:13;;;;;;;22.92;12.48;;;;;;;3.07;69.65;95944.47;4971595;28;20042;-67
2021/03/23 02:29:38;;;;;;;25.52;12.38;;;;;;;3.02;69.73;95956.72;4980542;28;20187;-70
2021/03/23 02:32:04;;;;;;;17.35;12.60;;;;;;;2.79;70.42;95947.91;4973413;28;20452;-67
2021/03/23 02:34:30;;;;;;;22.77;12.60;;;;;;;2.74;70.10;95939.13;4973541;28;20568;-68
2021/03/23 02:36:56;;;;;;;19.98;13.02;;;;;;;2.38;70.51;95896.44;4971423;28;20058;-67
2021/03/23 02:39:27;;;;;;;25.90;12.75;;;;;;;2.48;71.11;95936.03;4971451;28;20097;-67
2021/03/23 02:41:55;;;;;;;26.95;14.13;;;;;;;2.81;70.62;95958.16;4978102;28;20039;-68
2021/03/23 02:44:21;;;;;;;21.50;12.95;;;;;;;2.86;70.33;95959.06;4958581;28;20093;-67
2021/03/23 02:46:46;;;;;;;19.80;13.48;;;;;;;2.60;71.03;95951.72;4988628;28;20023;-69
2021/03/23 02:49:12;;;;;;;26.13;14.13;;;;;;;2.40;72.01;95946.09;4990867;28;20027;-68
2021/03/23 02:51:38;;;;;;;24.48;13.40;;;;;;;2.32;71.60;95921.00;4988426;28;20443;-67
2021/03/23 02:54:04;;;;;;;27.00;13.15;;;;;;;2.61;71.94;95958.59;4988647;28;20492;-66
2021/03/23 02:56:30;;;;;;;22.75;13.45;;;;;;;2.60;71.08;95964.88;4988761;28;20043;-67
2021/03/23 02:58:56;;;;;;;22.63;13.30;;;;;;;2.28;72.64;95961.88;4988582;28;20039;-68
2021/03/23 03:01:21;;;;;;;24.15;13.20;;;;;;;2.04;73.00;95925.16;4973017;28;20100;-67
2021/03/23 03:03:47;;;;;;;23.08;13.25;;;;;;;2.16;73.18;95951.41;4992384;28;20042;-66
2021/03/23 03:06:12;;;;;;;30.42;13.52;;;;;;;2.08;74.38;95959.59;4979214;28;20043;-67
2021/03/23 03:08:38;;;;;;;20.42;13.30;;;;;;;1.55;74.10;95879.25;4980473;28;20039;-67
2021/03/23 03:11:04;;;;;;;25.23;13.25;;;;;;;2.26;73.26;95958.69;4991434;28;20041;-68
2021/03/23 03:13:30;;;;;;;27.70;13.10;;;;;;;2.19;72.52;95931.75;4994114;28;20038;-66
2021/03/23 03:15:56;;;;;;;23.70;14.65;;;;;;;2.28;73.14;95969.75;4992362;28;20544;-66
2021/03/23 03:18:23;;;;;;;19.95;12.98;;;;;;;2.17;73.32;95955.59;4992013;28;20038;-68
2021/03/23 03:20:50;;;;;;;29.83;13.13;;;;;;;2.34;72.75;95966.97;4991948;28;20407;-68
2021/03/23 03:23:16;;;;;;;21.17;12.52;;;;;;;2.39;73.06;95970.75;4991982;28;20030;-67
2021/03/23 03:25:42;;;;;;;22.23;13.60;;;;;;;2.13;72.27;95922.19;4992096;28;20595;-66
2021/03/23 03:28:08;;;;;;;27.83;13.77;;;;;;;2.15;72.36;95925.34;4993882;28;20113;-67
2021/03/23 03:30:35;;;;;;;24.90;12.93;;;;;;;2.47;72.39;95973.81;4991961;28;20113;-67
2021/03/23 03:33:01;;;;;;;25.60;13.70;;;;;;;2.55;72.20;95977.91;4974158;28;20635;-68
2021/03/23 03:35:32;;;;;;;23.10;12.80;;;;;;;2.71;71.84;95973.75;4991913;28;20038;-68
2021/03/23 03:37:59;;;;;;;20.47;13.33;;;;;;;2.68;71.26;95958.47;4974411;28;20038;-66
2021/03/23 03:40:31;;;;;;;20.98;12.85;;;;;;;2.65;71.71;95964.16;4993739;28;20026;-67
2021/03/23 03:42:56;;;;;;;22.75;14.18;;;;;;;2.86;71.43;95989.78;4991665;28;20034;-66
2021/03/23 03:45:23;;;;;;;26.52;13.73;;;;;;;2.84;70.92;95971.66;4991732;28;20506;-66
2021/03/23 03:47:50;;;;;;;24.10;13.65;;;;;;;2.59;70.93;95940.44;4991733;28;20054;-67
2021/03/23 03:50:16;;;;;;;21.20;12.77;;;;;;;2.46;71.47;95971.44;4986081;28;20038;-67
2021/03/23 03:52:42;;;;;;;22.50;12.60;;;;;;;2.60;71.15;95985.88;4972953;28;20031;-67
2021/03/23 03:55:08;;;;;;;21.23;12.50;;;;;;;2.63;71.50;95982.81;4993556;28;20046;-67
2021/03/23 03:57:33;;;;;;;28.65;13.88;;;;;;;2.55;71.54;95954.25;4973694;28;20129;-67
2021/03/23 03:59:58;;;;;;;25.58;13.48;;;;;;;2.72;71.51;95955.13;4973900;28;20134;-66
2021/03/23 04:02:24;;;;;;;21.67;12.55;;;;;;;2.82;71.04;95934.31;4991316;28;20399;-68
2021/03/23 04:04:49;;;;;;;20.88;12.73;;;;;;;2.74;70.37;95939.94;4973969;28;20126;-67
2021/03/23 04:07:14;;;;;;;25.63;13.25;;;;;;;3.03;70.14;95953.06;4993063;28;20034;-67
2021/03/23 04:09:40;;;;;;;22.65;11.88;;;;;;;3.23;69.86;95984.19;4991188;28;20049;-67
2021/03/23 04:12:07;;;;;;;25.60;14.48;;;;;;;3.10;69.43;95965.00;4973582;28;20051;-66
2021/03/23 04:14:33;;;;;;;25.90;13.38;;;;;;;2.99;69.34;95950.09;4991283;28;20034;-67
2021/03/23 04:16:59;;;;;;;22.88;14.25;;;;;;;2.68;69.58;95934.81;4990993;28;20078;-71
2021/03/23 04:19:24;;;;;;;24.67;13.57;;;;;;;2.55;70.83;95962.13;4975399;28;20058;-67
2021/03/23 04:21:50;;;;;;;25.30;14.13;;;;;;;2.83;70.35;95987.66;4990717;28;20051;-68
2021/03/23 04:24:16;;;;;;;22.40;13.15;;;;;;;2.85;70.48;95970.59;4960235;28;20512;-67
2021/03/23 04:26:41;;;;;;;28.73;13.55;;;;;;;2.56;71.08;95975.06;4971334;28;20113;-67
2021/03/23 04:29:06;;;;;;;22.35;14.25;;;;;;;2.50;71.57;95975.97;4971581;28;20063;-68
2021/03/23 04:31:35;;;;;;;22.00;12.88;;;;;;;2.17;72.58;95970.56;4973004;28;20030;-67
2021/03/23 04:34:01;;;;;;;23.70;14.30;;;;;;;2.42;72.54;95989.47;4971877;28;20050;-68
2021/03/23 04:36:27;;;;;;;26.27;13.30;;;;;;;2.32;72.25;95984.81;4954109;28;20738;-68
2021/03/23 04:38:53;;;;;;;26.67;14.23;;;;;;;2.46;72.08;95998.50;4970603;28;20038;-68
2021/03/23 04:41:18;;;;;;;28.38;14.55;;;;;;;2.39;71.67;95966.28;4976871;28;20088;-67
2021/03/23 04:43:47;;;;;;;19.98;14.13;;;;;;;2.76;71.46;95973.84;4973210;28;20033;-67
2021/03/23 04:46:15;;;;;;;28.60;15.55;;;;;;;3.00;70.58;96000.84;4992696;28;20022;-66
2021/03/23 04:48:41;;;;;;;27.85;14.95;;;;;;;2.94;70.39;95986.00;4990200;28;20558;-73
2021/03/23 04:51:09;;;;;;;24.85;14.60;;;;;;;2.88;70.26;95958.84;4977923;28;20043;-68
2021/03/23 04:53:36;;;;;;;28.45;15.18;;;;;;;2.85;70.39;96015.28;4969477;28;20544;-68
2021/03/23 04:56:03;;;;;;;26.55;13.57;;;;;;;2.63;71.00;96003.00;4974731;28;20034;-65
2021/03/23 04:58:29;;;;;;;25.85;13.77;;;;;;;2.27;72.48;96002.28;4992098;28;20019;-67
2021/03/23 05:00:57;;;;;;;25.55;14.93;;;;;;;2.42;71.99;95999.97;4990343;28;20042;-69
2021/03/23 05:03:24;;;;;;;27.58;15.63;;;;;;;2.46;71.82;96014.25;4990158;28;20129;-66
2021/03/23 05:05:54;;;;;;;26.90;15.32;;;;;;;2.07;71.88;95950.16;4989314;28;20073;-66
2021/03/23 05:08:21;;;;;;;30.75;15.20;;;;;;;2.56;71.52;96013.66;4972598;28;20535;-67
2021/03/23 05:10:46;;;;;;;32.28;15.15;;;;;;;2.59;71.85;96024.47;4991282;28;20400;-66
2021/03/23 05:13:12;;;;;;;27.92;13.93;;;;;;;2.08;72.06;95994.53;4992952;28;20026;-67
2021/03/23 05:15:37;;;;;;;29.10;14.45;;;;;;;2.57;72.82;96033.63;4991436;28;20054;-66
2021/03/23 05:18:03;;;;;;;28.88;14.07;;;;;;;2.81;71.86;96037.00;4973320;28;20072;-67
2021/03/23 05:20:28;;;;;;;30.52;15.98;;;;;;;2.47;71.72;96015.84;4990472;28;20484;-67
2021/03/23 05:22:54;;;;;;;26.23;15.32;;;;;;;2.66;71.30;96015.66;4973080;28;20049;-68
2021/03/23 05:25:19;;;;;;;28.05;15.48;;;;;;;2.63;71.37;96035.34;4992628;28;20476;-67
2021/03/23 05:27:45;;;;;;;29.70;15.25;;;;;;;2.75;71.35;96020.34;4989473;28;20042;-67
2021/03/23 05:30:11;;;;;;;27.92;14.90;;;;;;;3.02;71.24;96033.75;4973391;28;20047;-67
2021/03/23 05:32:37;;;;;;;26.25;15.55;;;;;;;2.78;71.14;96035.63;4990561;28;20455;-68
2021/03/23 05:35:05;;;;;;;24.13;15.45;;;;;;;2.90;71.24;96034.81;4990854;28;20042;-67
2021/03/23 05:37:30;;;;;;;31.45;15.63;;;;;;;2.94;70.84;96042.00;4992478;28;20034;-68
2021/03/23 05:39:55;;;;;;;24.48;14.75;;;;;;;2.24;72.22;96019.28;4973193;28;20050;-68
2021/03/23 05:42:25;;;;;;;26.70;14.63;;;;;;;2.28;73.29;96045.88;4973052;28;20038;-67
2021/03/23 05:45:15;;;;;;;38.40;15.40;;;;;;;2.30;72.84;96007.88;4973388;28;20042;-67
2021/03/23 05:47:43;;;;;;;26.75;15.93;;;;;;;2.74;72.19;96021.38;4981575;28;20031;-68
2021/03/23 05:50:19;;;;;;;26.02;14.98;;;;;;;3.15;70.86;96032.66;4957887;28;20433;-68
2021/03/23 05:52:54;;;;;;;29.88;17.80;;;;;;;3.13;70.60;96042.63;4990129;28;20042;-67
2021/03/23 05:55:34;;;;;;;26.52;15.77;;;;;;;2.84;70.90;96050.47;4992515;28;20153;-67
2021/03/23 05:58:01;;;;;;;30.08;16.63;;;;;;;2.66;71.63;96026.97;4990580;28;20054;-68
2021/03/23 06:00:35;;;;;;;28.05;15.02;;;;;;;3.23;70.43;96055.16;4990277;28;20050;-67
2021/03/23 06:03:33;;;;;;;28.42;15.40;;;;;;;2.97;71.20;96057.31;4972803;28;20129;-67
2021/03/23 06:06:10;;;;;;;26.00;14.90;;;;;;;3.04;71.35;96067.69;4990431;28;20054;-67
2021/03/23 06:08:37;;;;;;;27.42;14.93;;;;;;;2.62;71.39;96046.06;4990050;28;20081;-67
2021/03/23 06:11:05;;;;;;;30.08;14.90;;;;;;;2.50;72.10;96070.50;4990082;28;20042;-67
2021/03/23 06:13:57;;;;;;;26.15;15.05;;;;;;;2.64;72.09;96071.06;4974672;28;20108;-67
2021/03/23 06:16:37;;;;;;;28.07;15.40;;;;;;;2.78;71.23;96061.13;4953774;28;20408;-67
2021/03/23 06:19:38;;;;;;;24.55;15.02;;;;;;;2.67;72.08;96075.06;4990446;28;20053;-66
2021/03/23 06:22:45;;;;;;;25.98;14.80;;;;;;;2.57;72.47;96081.69;4990392;28;20046;-67
2021/03/23 06:25:17;;;;;;;26.25;13.93;;;;;;;2.52;72.76;96081.59;4971199;28;20507;-67
2021/03/23 06:28:01;;;;;;;23.08;14.38;;;;;;;2.53;72.29;96067.44;4970586;28;20101;-67
2021/03/23 06:30:45;;;;;;;25.13;14.75;;;;;;;3.05;71.34;96079.78;4970564;28;20031;-66
2021/03/23 06:33:14;;;;;;;25.23;14.40;;;;;;;2.84;71.11;96071.50;4970494;28;20046;-68
2021/03/23 06:35:43;;;;;;;29.38;15.13;;;;;;;2.79;71.98;96081.09;4953399;28;20047;-67
2021/03/23 06:38:37;;;;;;;28.13;15.30;;;;;;;2.55;72.85;96051.44;4960244;28;20085;-68
2021/03/23 06:41:22;;;;;;;30.45;16.10;;;;;;;2.45;73.43;96078.28;4992268;28;20500;-68
2021/03/23 06:43:57;;;;;;;26.50;16.27;;;;;;;2.91;71.63;96086.31;4991561;28;20030;-67
2021/03/23 06:46:31;;;;;;;27.38;15.48;;;;;;;2.51;73.33;96095.75;4976533;28;20015;-68
2021/03/23 06:49:08;;;;;;;23.95;15.60;;;;;;;2.91;72.55;96092.38;4993189;28;20038;-67
2021/03/23 06:51:34;;;;;;;32.97;15.60;;;;;;;2.55;73.24;96099.50;4975677;28;20122;-68
2021/03/23 06:54:28;;;;;;;25.40;15.27;;;;;;;2.52;73.72;96093.94;4985368;28;20141;-69
2021/03/23 06:57:12;;;;;;;28.77;15.43;;;;;;;3.25;72.21;96100.41;4963788;28;20089;-67
2021/03/23 07:00:07;;;;;;;36.33;17.00;;;;;;;3.36;71.06;96099.56;4967236;28;20047;-68
2021/03/23 07:02:39;;;;;;;31.48;15.52;;;;;;;3.74;70.39;96106.06;4971851;28;20552;-67
2021/03/23 07:05:33;;;;;;;30.85;15.77;;;;;;;3.85;69.39;96098.09;4974221;28;20031;-67
2021/03/23 07:08:00;;;;;;;24.55;15.68;;;;;;;4.02;68.78;96108.63;4973845;28;20047;-67
2021/03/23 07:10:33;;;;;;;31.52;16.42;;;;;;;4.59;68.13;96100.53;4975775;28;20027;-66
2021/03/23 07:13:00;;;;;;;27.95;15.93;;;;;;;4.22;66.97;96071.28;4993410;28;20082;-67
2021/03/23 07:15:29;;;;;;;26.77;15.82;;;;;;;4.65;66.24;96046.88;4993329;28;20038;-67
2021/03/23 07:18:17;;;;;;;31.60;16.45;;;;;;;4.69;66.19;96092.78;4993135;28;20042;-67
2021/03/23 07:20:49;;;;;;;24.75;15.68;;;;;;;3.63;69.56;96099.78;4982026;28;20030;-68
2021/03/23 07:23:33;;;;;;;28.05;17.15;;;;;;;3.90;69.95;96113.19;4975923;28;20042;-68
2021/03/23 07:26:15;;;;;;;29.77;15.75;;;;;;;3.54;70.46;96106.50;4975637;28;20551;-68
2021/03/23 07:28:43;;;;;;;23.75;14.88;;;;;;;3.35;71.14;96082.19;4993054;28;20072;-67
2021/03/23 07:31:17;;;;;;;25.83;15.90;;;;;;;4.27;68.11;96073.22;4994773;28;20037;-66
2021/03/23 07:33:46;;;;;;;26.73;16.05;;;;;;;4.35;68.02;96099.94;4992941;28;20447;-65
2021/03/23 07:36:17;;;;;;;31.92;16.83;;;;;;;4.51;68.44;96108.06;4975496;28;20121;-66
2021/03/23 07:38:52;;;;;;;25.80;15.02;;;;;;;4.61;67.55;96095.84;4975091;28;20026;-63
2021/03/23 07:41:23;;;;;;;25.60;14.75;;;;;;;4.21;68.02;96116.31;4992450;28;20539;-66
2021/03/23 07:43:58;;;;;;;30.58;15.32;;;;;;;3.82;70.02;96113.56;4992883;28;20042;-70
2021/03/23 07:46:30;;;;;;;30.08;16.45;;;;;;;4.33;68.85;96104.63;4994753;28;20101;-66
2021/03/23 07:49:02;;;;;;;30.08;15.55;;;;;;;4.08;69.43;96106.88;4992080;28;20129;-66
2021/03/23 07:51:53;;;;;;;31.65;16.08;;;;;;;3.62;70.36;96069.25;4991931;28;20500;-64
2021/03/23 07:54:21;;;;;;;22.63;15.07;;;;;;;4.48;68.25;96111.19;4975128;28;20077;-68
2021/03/23 07:57:22;;;;;;;24.90;15.77;;;;;;;4.83;67.31;96116.16;4974887;28;20046;-64
2021/03/23 08:00:13;;;;;;;21.15;12.57;;;;;;;4.52;66.17;96102.56;4991092;28;20045;-67
2021/03/23 08:02:44;;;;;;;22.77;14.13;;;;;;;4.88;66.23;96117.03;4991903;28;20121;-64
2021/03/23 08:05:22;;;;;;;27.38;14.80;;;;;;;5.28;66.08;96115.16;4992142;28;20088;-62
2021/03/23 08:07:53;;;;;;;25.70;14.27;;;;;;;5.09;65.45;96115.44;4991946;28;20105;-66
2021/03/23 08:10:46;;;;;;;22.63;12.63;;;;;;;4.23;67.06;96101.06;4993845;28;20022;-64
2021/03/23 08:13:22;;;;;;;21.98;14.18;;;;;;;4.84;66.70;96107.22;4992305;28;20044;-65
2021/03/23 08:16:15;;;;;;;29.15;15.30;;;;;;;5.41;64.50;96114.75;4992043;28;20070;-62
2021/03/23 08:19:22;;;;;;;23.35;12.75;;;;;;;4.80;65.34;96119.28;4991867;28;20034;-67
2021/03/23 08:22:14;;;;;;;31.63;15.40;;;;;;;5.51;63.90;96117.50;4934065;28;20466;-65
2021/03/23 08:25:00;;;;;;;30.63;15.00;;;;;;;5.60;63.68;96116.03;4955382;28;20038;-64
2021/03/23 08:27:48;;;;;;;21.42;13.30;;;;;;;4.73;65.79;96110.75;4987269;28;20496;-65
2021/03/23 08:30:31;;;;;;;21.60;14.70;;;;;;;5.32;64.22;96121.50;4991863;28;20074;-65
2021/03/23 08:33:01;;;;;;;28.88;15.32;;;;;;;5.47;63.80;96097.94;4974063;28;20121;-66
2021/03/23 08:35:45;;;;;;;25.27;14.80;;;;;;;5.84;62.75;96121.03;4991696;28;20123;-63
2021/03/23 08:38:33;;;;;;;21.67;14.27;;;;;;;7.15;60.35;96115.09;4973993;28;20472;-63
2021/03/23 08:41:13;;;;;;;26.20;14.52;;;;;;;7.97;57.16;96116.13;4991622;28;20046;-64
2021/03/23 08:43:40;;;;;;;23.00;14.32;;;;;;;7.88;55.86;96123.00;4991600;28;20022;-65
2021/03/23 08:46:30;;;;;;;20.33;13.60;;;;;;;8.78;55.13;96118.03;4993681;28;20380;-65
2021/03/23 08:49:06;;;;;;;17.98;12.85;;;;;;;8.33;52.45;96085.16;4991420;28;20038;-64
2021/03/23 08:51:38;;;;;;;22.38;12.20;;;;;;;8.06;54.74;96125.16;4990865;28;20042;-65
2021/03/23 08:54:06;;;;;;;23.80;12.63;;;;;;;8.89;53.62;96118.00;4974024;28;20035;-66
2021/03/23 08:56:41;;;;;;;21.05;11.65;;;;;;;8.95;53.04;96128.31;4991509;28;20161;-69
2021/03/23 08:59:36;;;;;;;17.38;11.07;;;;;;;9.09;51.19;96123.25;4991069;28;20039;-64
2021/03/23 09:02:27;;;;;;;19.50;11.73;;;;;;;8.74;51.30;96124.91;4991102;28;20070;-64
2021/03/23 09:04:57;;;;;;;17.10;11.52;;;;;;;7.73;52.33;96120.34;4991326;28;20027;-64
2021/03/23 09:07:34;;;;;;;19.77;11.40;;;;;;;7.02;55.99;96119.03;4992873;28;20499;-65
2021/03/23 09:10:00;;;;;;;18.55;11.40;;;;;;;7.15;55.54;96135.47;4974413;28;20074;-64
2021/03/23 09:12:42;;;;;;;19.83;11.15;;;;;;;6.58;57.77;96123.78;4973550;28;20026;-64
2021/03/23 09:17:38;;;;;;;21.47;10.53;;;;;;;7.17;56.04;96126.25;4990892;28;20489;-65
2021/03/23 09:20:32;;;;;;;17.27;11.27;;;;;;;7.03;57.12;96131.19;4990474;28;20046;-66
2021/03/23 09:23:16;;;;;;;17.15;11.23;;;;;;;8.08;55.33;96130.19;4990650;28;20034;-65
2021/03/23 09:25:44;;;;;;;14.18;10.02;;;;;;;6.90;53.97;96131.63;4990916;28;20030;-63
2021/03/23 09:28:11;;;;;;;14.68;8.18;;;;;;;6.11;54.02;96137.69;4975143;28;20030;-65
2021/03/23 09:30:46;;;;;;;18.67;9.00;;;;;;;5.84;55.90;96137.66;4990725;28;20112;-64
2021/03/23 09:33:27;;;;;;;14.40;9.60;;;;;;;7.13;53.86;96130.44;4960067;28;20074;-64
2021/03/23 09:36:01;;;;;;;16.08;9.57;;;;;;;6.59;53.33;96127.22;4971472;28;20035;-64
2021/03/23 09:38:33;;;;;;;17.00;9.20;;;;;;;6.87;53.36;96112.88;4960716;28;20034;-65
2021/03/23 09:41:05;;;;;;;13.88;8.25;;;;;;;7.28;50.15;96117.28;4972815;28;20042;-65
2021/03/23 09:43:39;;;;;;;8.20;5.00;;;;;;;7.17;45.22;96125.44;4992531;28;20397;-64
2021/03/23 09:46:13;;;;;;;10.63;5.65;;;;;;;6.36;47.78;96121.25;4991105;28;20369;-64
2021/03/23 09:49:17;;;;;;;14.65;5.72;;;;;;;6.40;49.27;96121.53;4990342;28;20039;-64
2021/03/23 09:51:47;;;;;;;14.38;6.10;;;;;;;6.84;48.26;96119.44;4989995;28;20050;-65
2021/03/23 09:54:16;;;;;;;13.57;6.53;;;;;;;7.49;46.48;96118.16;4990405;28;20058;-64
2021/03/23 09:56:46;;;;;;;8.50;5.80;;;;;;;7.28;45.62;96117.28;4990307;28;20076;-64
2021/03/23 09:59:14;;;;;;;7.32;5.22;;;;;;;7.82;44.44;96108.16;4972847;28;20030;-65
2021/03/23 10:01:55;;;;;;;12.43;6.45;;;;;;;8.86;44.17;96108.72;4990169;28;20026;-65
2021/03/23 10:04:26;;;;;;;6.68;4.53;;;;;;;7.64;41.91;96109.47;4992355;28;20404;-64
2021/03/23 10:06:51;;;;;;;5.03;3.47;;;;;;;7.63;41.74;96085.91;4990051;28;20092;-64
2021/03/23 10:09:27;;;;;;;10.60;4.82;;;;;;;8.14;41.19;96107.97;4990282;28;20046;-64
2021/03/23 10:11:52;;;;;;;9.75;5.15;;;;;;;7.76;42.54;96086.19;4990235;28;20381;-64
2021/03/23 10:14:50;;;;;;;8.82;6.00;;;;;;;8.17;43.37;96091.53;4972674;28;20085;-64
2021/03/23 10:17:28;;;;;;;21.75;7.43;;;;;;;7.62;44.58;96071.84;4978044;28;20030;-64
2021/03/23 10:19:58;;;;;;;10.25;5.65;;;;;;;7.36;45.68;96109.91;4989779;28;20026;-65
2021/03/23 10:22:30;;;;;;;9.68;5.57;;;;;;;6.64;47.68;96096.31;4974341;28;20476;-64
2021/03/23 10:24:58;;;;;;;13.20;7.10;;;;;;;6.96;47.16;96108.66;4990264;28;20035;-64
2021/03/23 10:27:31;;;;;;;11.13;5.95;;;;;;;6.77;47.63;96055.41;4990023;28;20050;-63
2021/03/23 10:30:35;;;;;;;13.38;6.88;;;;;;;7.60;46.90;96105.75;4990150;28;20070;-61
2021/03/23 10:33:21;;;;;;;11.07;6.68;;;;;;;7.61;46.41;96096.75;4957228;28;20038;-62
2021/03/23 10:35:46;;;;;;;15.02;6.97;;;;;;;7.88;46.79;96111.63;4972519;28;20065;-63
2021/03/23 10:38:12;;;;;;;13.15;5.28;;;;;;;6.41;50.68;96133.72;4989801;28;20038;-62
2021/03/23 10:40:38;;;;;;;9.45;7.32;;;;;;;6.42;52.57;96114.94;4989709;28;20030;-64
2021/03/23 10:43:05;;;;;;;12.20;10.20;;;;;;;7.18;51.17;96095.28;4991296;28;20033;-62
2021/03/23 10:45:39;;;;;;;14.07;8.82;;;;;;;6.78;52.21;96117.81;4989902;28;20134;-63
2021/03/23 10:48:18;;;;;;;12.68;7.63;;;;;;;6.40;51.89;96114.41;4989862;28;20108;-62
2021/03/23 10:50:46;;;;;;;13.40;6.93;;;;;;;6.80;50.71;96115.72;4989329;28;20070;-64
2021/03/23 10:53:22;;;;;;;5.15;4.00;;;;;;;6.39;47.41;96090.84;4972134;28;20043;-63
2021/03/23 10:55:50;;;;;;;8.20;5.18;;;;;;;6.46;49.65;96116.03;4990050;28;20380;-62
2021/03/23 10:58:16;;;;;;;9.77;6.50;;;;;;;6.84;49.84;96116.00;4991659;28;20019;-63
2021/03/23 11:00:41;;;;;;;10.45;7.75;;;;;;;7.83;48.19;96091.25;4972204;28;20404;-62
2021/03/23 11:03:19;;;;;;;10.70;7.03;;;;;;;8.35;46.96;96114.06;4989481;28;20472;-63
2021/03/23 11:05:50;;;;;;;11.02;7.00;;;;;;;8.74;46.20;96100.25;4989663;28;20061;-63
2021/03/23 11:08:16;;;;;;;10.50;6.22;;;;;;;7.20;47.42;96090.53;4989536;28;20117;-62
2021/03/23 11:10:43;;;;;;;15.48;7.35;;;;;;;6.83;49.86;96080.84;4989560;28;20032;-64
2021/03/23 11:13:11;;;;;;;11.57;6.78;;;;;;;7.04;48.45;96098.38;4991477;28;20030;-63
2021/03/23 11:15:48;;;;;;;9.40;6.95;;;;;;;7.22;49.46;96088.44;4989797;28;20408;-62
2021/03/23 11:18:23;;;;;;;12.75;7.35;;;;;;;8.53;46.97;96102.13;4989595;28;20030;-62
2021/03/23 11:20:51;;;;;;;8.98;6.85;;;;;;;8.61;45.43;96092.88;4961633;28;20094;-62
2021/03/23 11:23:33;;;;;;;10.68;6.68;;;;;;;9.04;44.04;96102.03;4971295;28;20043;-64
2021/03/23 11:25:59;;;;;;;9.18;6.88;;;;;;;9.13;44.05;96089.81;4977115;28;20381;-63
2021/03/23 11:28:24;;;;;;;12.73;7.50;;;;;;;8.73;42.91;96016.44;4994632;28;20030;-63
2021/03/23 11:30:50;;;;;;;17.05;6.10;;;;;;;8.75;43.79;96097.34;4993076;28;20509;-62
2021/03/23 11:33:16;;;;;;;6.07;4.53;;;;;;;8.70;42.64;96100.00;4992712;28;20488;-62
2021/03/23 11:35:51;;;;;;;5.50;4.20;;;;;;;9.72;40.26;96093.50;4991807;28;20049;-63
2021/03/23 11:38:17;;;;;;;6.80;5.10;;;;;;;8.70;41.88;96080.63;4975330;28;20109;-65
2021/03/23 11:40:43;;;;;;;8.23;6.18;;;;;;;8.92;42.35;96089.06;4992405;28;20034;-63
2021/03/23 11:43:27;;;;;;;6.38;4.75;;;;;;;9.86;40.18;96091.84;4976928;28;20027;-63
2021/03/23 11:46:01;;;;;;;6.70;5.07;;;;;;;8.59;42.86;96066.59;4992955;28;20045;-67
2021/03/23 11:48:32;;;;;;;8.38;5.45;;;;;;;10.03;40.26;96083.47;4992447;28;20527;-63
2021/03/23 11:51:00;;;;;;;9.30;5.00;;;;;;;9.50;40.47;96080.63;4974407;28;20117;-61